createdAt,value
2017-10-26T00:03:03.392Z,87.67
2017-10-26T00:08:06.066Z,92.20
2017-10-26T00:13:08.012Z,120.17
2017-10-26T00:18:09.961Z,128.90
2017-10-26T00:23:11.950Z,158.17
2017-10-26T00:28:14.162Z,124.23
2017-10-26T00:33:16.291Z,141.73
2017-10-26T00:38:18.655Z,125.43
2017-10-26T00:43:20.995Z,96.87
2017-10-26T00:48:23.222Z,111.93
2017-10-26T00:53:25.388Z,110.40
2017-10-26T00:58:29.881Z,72.40
2017-10-26T01:03:32.205Z,55.87
2017-10-26T01:08:35.516Z,66.67
2017-10-26T01:13:37.998Z,81.03
2017-10-26T01:18:40.319Z,87.00
2017-10-26T01:23:42.900Z,115.33
2017-10-26T01:28:45.255Z,114.30
2017-10-26T01:33:48.556Z,101.23
2017-10-26T01:38:51.839Z,127.23
2017-10-26T01:43:55.479Z,125.03
2017-10-26T01:48:57.831Z,115.20
2017-10-26T01:54:02.822Z,96.77
2017-10-26T01:59:05.037Z,99.90
2017-10-26T02:04:07.160Z,75.83
2017-10-26T02:09:09.399Z,79.60
2017-10-26T02:14:11.633Z,69.63
2017-10-26T02:19:13.873Z,87.93
2017-10-26T02:24:16.112Z,94.53
2017-10-26T02:35:06.082Z,88.63
2017-10-26T02:40:08.920Z,106.10
2017-10-26T02:45:10.983Z,100.07
2017-10-26T02:50:13.877Z,112.80
2017-10-26T02:55:16.331Z,121.93
2017-10-26T03:00:18.436Z,111.27
2017-10-26T03:05:20.653Z,108.43
2017-10-26T03:10:22.773Z,104.67
2017-10-26T03:15:25.697Z,86.67
2017-10-26T03:20:28.018Z,107.33
2017-10-26T03:25:30.093Z,123.00
2017-10-26T03:30:32.278Z,128.87
2017-10-26T03:35:34.231Z,137.63
2017-10-26T03:40:36.128Z,160.40
2017-10-26T03:45:38.051Z,166.40
2017-10-26T03:50:39.979Z,180.03
2017-10-26T03:55:42.659Z,173.20
2017-10-26T04:00:44.627Z,190.17
2017-10-26T04:05:46.532Z,192.23
2017-10-26T04:10:48.416Z,191.30
2017-10-26T04:15:51.068Z,196.87
2017-10-26T04:20:53.071Z,205.23
2017-10-26T04:25:55.130Z,232.10
2017-10-26T04:30:57.250Z,240.63
2017-10-26T04:36:00.140Z,254.17
2017-10-26T04:41:02.145Z,261.50
2017-10-26T04:46:04.052Z,221.20
2017-10-26T04:51:05.980Z,244.13
2017-10-26T04:56:08.636Z,251.43
2017-10-26T05:01:10.542Z,253.87
2017-10-26T05:06:13.656Z,256.97
2017-10-26T05:11:15.980Z,258.50
2017-10-26T05:16:17.909Z,237.43
2017-10-26T05:21:19.856Z,221.57
2017-10-26T05:26:21.767Z,233.20
2017-10-26T05:31:23.757Z,210.00
2017-10-26T05:36:25.772Z,233.83
2017-10-26T05:41:27.735Z,214.90
2017-10-26T05:46:30.122Z,230.43
2017-10-26T05:51:32.069Z,218.07
2017-10-26T05:56:34.085Z,199.17
2017-10-26T06:01:36.089Z,213.03
2017-10-26T06:06:38.156Z,222.23
2017-10-26T06:11:40.180Z,216.90
2017-10-26T06:16:42.152Z,177.37
2017-10-26T06:21:44.055Z,205.30
2017-10-26T06:26:45.982Z,178.63
2017-10-26T06:31:48.204Z,202.77
2017-10-26T06:36:50.163Z,209.37
2017-10-26T06:41:52.092Z,181.60
2017-10-26T06:46:54.208Z,198.03
2017-10-26T06:51:56.139Z,170.80
2017-10-26T06:57:05.318Z,168.27
2017-10-26T07:02:13.337Z,166.87
2017-10-26T07:07:21.691Z,147.63
2017-10-26T07:12:28.890Z,145.20
2017-10-26T07:17:38.071Z,148.53
2017-10-26T07:22:44.859Z,148.87
2017-10-26T07:27:47.061Z,135.10
2017-10-26T07:32:51.163Z,140.13
2017-10-26T07:37:55.928Z,138.40
2017-10-26T07:42:57.982Z,124.20
2017-10-26T07:48:00.426Z,106.17
2017-10-26T07:53:04.254Z,100.43
2017-10-26T07:58:06.304Z,95.30
2017-10-26T08:03:08.379Z,88.10
2017-10-26T08:08:11.820Z,77.87
2017-10-26T08:13:17.347Z,76.03
2017-10-26T08:18:19.331Z,84.73
2017-10-26T08:23:21.359Z,80.93
2017-10-26T08:28:30.289Z,83.07
2017-10-26T08:33:32.406Z,78.30
2017-10-26T08:38:34.334Z,78.27
2017-10-26T08:43:38.473Z,74.07
2017-10-26T08:48:40.865Z,74.30
2017-10-26T08:53:43.670Z,67.17
2017-10-26T08:58:47.353Z,62.80
2017-10-26T09:03:52.793Z,74.20
2017-10-26T09:08:54.816Z,68.10
2017-10-26T09:13:57.672Z,61.87
2017-10-26T09:19:05.279Z,68.80
2017-10-26T09:24:08.088Z,61.90
2017-10-26T09:29:10.095Z,62.43
2017-10-26T09:34:12.113Z,66.17
2017-10-26T09:39:14.900Z,63.03
2017-10-26T09:44:17.736Z,56.37
2017-10-26T09:49:19.855Z,55.53
2017-10-26T09:54:21.868Z,58.73
2017-10-26T09:59:23.896Z,64.93
2017-10-26T10:04:26.642Z,49.03
2017-10-26T10:09:28.734Z,50.63
2017-10-26T10:14:30.781Z,58.30
2017-10-26T10:19:32.940Z,58.00
2017-10-26T10:24:35.726Z,59.33
2017-10-26T10:29:38.492Z,66.20
2017-10-26T10:34:40.508Z,62.77
2017-10-26T10:39:42.536Z,58.37
2017-10-26T10:44:44.599Z,63.77
2017-10-26T10:49:47.390Z,61.33
2017-10-26T10:54:49.419Z,56.40
2017-10-26T10:59:58.247Z,70.77
2017-10-26T11:05:03.841Z,67.97
2017-10-26T11:10:11.308Z,60.47
2017-10-26T11:15:15.358Z,64.77
2017-10-26T11:20:18.011Z,64.70
2017-10-26T11:25:20.028Z,62.10
2017-10-26T11:30:22.036Z,53.33
2017-10-26T11:35:24.068Z,53.73
2017-10-26T11:40:26.132Z,60.83
2017-10-26T11:45:28.157Z,61.13
2017-10-26T11:50:30.245Z,52.33
2017-10-26T11:55:32.271Z,60.80
2017-10-26T12:00:34.333Z,46.77
2017-10-26T12:05:37.113Z,51.63
2017-10-26T12:10:39.132Z,48.00
2017-10-26T12:15:41.177Z,48.50
2017-10-26T12:20:43.211Z,59.30
2017-10-26T12:25:45.233Z,42.93
2017-10-26T12:30:47.313Z,49.93
2017-10-26T12:35:49.416Z,44.80
2017-10-26T12:40:51.519Z,41.63
2017-10-26T12:45:53.589Z,41.53
2017-10-26T12:50:55.617Z,38.20
2017-10-26T12:55:58.386Z,42.33
2017-10-26T13:01:00.436Z,35.30
2017-10-26T13:06:03.249Z,38.37
2017-10-26T13:11:05.316Z,42.93
2017-10-26T13:16:07.396Z,40.33
2017-10-26T13:21:09.424Z,32.67
2017-10-26T13:26:11.455Z,35.70
2017-10-26T13:31:13.418Z,36.93
2017-10-26T13:36:15.364Z,36.70
2017-10-26T13:41:17.302Z,37.67
2017-10-26T13:46:20.024Z,37.37
2017-10-26T13:51:23.095Z,44.13
2017-10-26T13:56:25.127Z,35.30
2017-10-26T14:01:27.198Z,27.87
2017-10-26T14:06:29.163Z,33.53
2017-10-26T14:11:31.178Z,30.73
2017-10-26T14:16:33.865Z,31.70
2017-10-26T14:21:35.811Z,36.60
2017-10-26T14:26:38.468Z,33.63
2017-10-26T14:31:40.373Z,34.27
2017-10-26T14:36:42.567Z,32.80
2017-10-26T14:41:44.473Z,26.90
2017-10-26T14:46:46.428Z,31.37
2017-10-26T14:51:49.115Z,29.97
2017-10-26T14:56:51.002Z,32.87
2017-10-26T15:01:52.940Z,31.60
2017-10-26T15:06:55.103Z,37.53
2017-10-26T15:11:58.547Z,36.43
2017-10-26T15:17:01.595Z,25.93
2017-10-26T15:22:03.622Z,28.23
2017-10-26T15:27:05.575Z,29.87
2017-10-26T15:32:08.267Z,29.30
2017-10-26T15:37:10.205Z,33.63
2017-10-26T15:42:12.260Z,33.67
2017-10-26T15:47:14.227Z,33.20
2017-10-26T15:52:16.142Z,34.80
2017-10-26T15:57:18.048Z,33.43
2017-10-26T16:02:19.960Z,28.67
2017-10-26T16:07:22.039Z,29.73
2017-10-26T16:12:25.401Z,30.80
2017-10-26T16:17:27.411Z,35.03
2017-10-26T16:22:29.365Z,31.33
2017-10-26T16:27:32.049Z,28.97
2017-10-26T16:32:33.975Z,31.40
2017-10-26T16:37:36.647Z,36.93
2017-10-26T16:42:38.678Z,36.73
2017-10-26T16:47:40.670Z,28.33
2017-10-26T16:52:42.634Z,28.60
2017-10-26T16:57:45.359Z,32.33
2017-10-26T17:02:47.299Z,28.17
2017-10-26T17:07:49.276Z,38.93
2017-10-26T17:12:51.258Z,36.27
2017-10-26T17:17:53.963Z,40.43
2017-10-26T17:22:55.973Z,31.70
2017-10-26T17:27:58.842Z,39.63
2017-10-26T17:33:01.905Z,35.77
2017-10-26T17:38:03.923Z,29.57
2017-10-26T17:43:11.621Z,29.73
2017-10-26T17:48:13.924Z,29.73
2017-10-26T17:53:21.988Z,30.10
2017-10-26T17:58:27.200Z,33.40
2017-10-26T18:03:29.693Z,32.83
2017-10-26T18:08:33.712Z,26.43
2017-10-26T18:13:37.377Z,25.13
2017-10-26T18:18:39.333Z,24.67
2017-10-26T18:23:41.320Z,32.33
2017-10-26T18:28:47.369Z,26.47
2017-10-26T18:33:49.335Z,34.07
2017-10-26T18:38:51.418Z,22.40
2017-10-26T18:43:54.301Z,20.90
2017-10-26T18:48:56.521Z,35.97
2017-10-26T18:53:58.492Z,18.53
2017-10-26T18:59:01.410Z,23.93
2017-10-26T19:04:03.619Z,14.70
2017-10-26T19:09:05.533Z,22.50
2017-10-26T19:14:08.205Z,18.73
2017-10-26T19:19:10.151Z,17.03
2017-10-26T19:24:12.239Z,15.07
2017-10-26T19:29:14.295Z,29.30
2017-10-26T19:34:16.275Z,16.20
2017-10-26T19:39:18.230Z,23.13
2017-10-26T19:44:24.305Z,14.47
2017-10-26T19:49:26.533Z,15.93
2017-10-26T19:54:29.338Z,17.03
2017-10-26T19:59:32.090Z,12.10
2017-10-26T20:04:34.800Z,32.33
2017-10-26T20:09:37.536Z,19.53
2017-10-26T20:14:39.509Z,20.53
2017-10-26T20:19:41.448Z,14.90
2017-10-26T20:24:43.361Z,18.27
2017-10-26T20:29:45.289Z,22.73
2017-10-26T20:34:47.984Z,26.93
2017-10-26T20:39:49.971Z,18.43
2017-10-26T20:44:51.906Z,23.10
2017-10-26T20:50:00.054Z,13.93
2017-10-26T20:55:07.894Z,19.27
2017-10-26T21:00:15.910Z,15.70
2017-10-26T21:05:23.806Z,20.77
2017-10-26T21:10:32.577Z,21.83
2017-10-26T21:15:35.234Z,27.87
2017-10-26T21:20:37.151Z,11.93
2017-10-26T21:25:39.098Z,23.80
2017-10-26T21:30:41.055Z,13.60
2017-10-26T21:35:42.955Z,20.27
2017-10-26T21:40:44.954Z,20.90
2017-10-26T21:45:46.953Z,19.60
2017-10-26T21:50:48.899Z,19.93
2017-10-26T21:55:50.818Z,13.27
2017-10-26T22:00:52.760Z,29.50
2017-10-26T22:05:54.725Z,15.07
2017-10-26T22:10:56.669Z,13.90
2017-10-26T22:15:58.666Z,16.17
2017-10-26T22:21:00.596Z,16.63
2017-10-26T22:26:02.562Z,13.87
2017-10-26T22:31:04.510Z,14.23
2017-10-26T22:36:06.448Z,17.93
2017-10-26T22:41:08.420Z,20.70
2017-10-26T22:46:10.347Z,23.37
2017-10-26T22:51:12.304Z,21.80
2017-10-26T22:56:14.256Z,16.50
2017-10-26T23:01:16.225Z,18.03
2017-10-26T23:06:18.141Z,20.07
2017-10-26T23:11:20.102Z,23.50
2017-10-26T23:16:22.083Z,14.43
2017-10-26T23:21:24.092Z,17.30
2017-10-26T23:26:26.792Z,26.63
2017-10-26T23:31:28.674Z,13.60
2017-10-26T23:36:30.600Z,21.13
2017-10-26T23:41:32.534Z,10.80
2017-10-26T23:46:34.476Z,31.53
2017-10-26T23:51:36.474Z,19.40
2017-10-26T23:56:38.410Z,15.07
